createdAt,value
2022-09-30T00:01:03.533Z,13.07
2022-09-30T00:03:34.255Z,13.60
2022-09-30T00:06:08.970Z,14.87
2022-09-30T00:08:39.189Z,14.45
2022-09-30T00:11:10.976Z,13.38
2022-09-30T00:13:40.167Z,14.18
2022-09-30T00:16:09.957Z,12.63
2022-09-30T00:18:38.087Z,13.15
2022-09-30T00:21:16.044Z,12.30
2022-09-30T00:23:45.059Z,12.95
2022-09-30T00:26:18.419Z,14.05
2022-09-30T00:28:52.897Z,12.80
2022-09-30T00:31:22.808Z,13.90
2022-09-30T00:34:07.347Z,13.18
2022-09-30T00:36:47.352Z,15.13
2022-09-30T00:39:22.010Z,12.60
2022-09-30T00:41:56.343Z,16.40
2022-09-30T00:45:05.395Z,17.10
2022-09-30T00:47:43.672Z,14.98
2022-09-30T00:50:32.352Z,16.33
2022-09-30T00:53:30.851Z,16.02
2022-09-30T00:56:05.533Z,14.45
2022-09-30T00:58:41.195Z,15.85
2022-09-30T01:01:10.155Z,17.02
2022-09-30T01:03:48.672Z,17.05
2022-09-30T01:06:22.013Z,18.17
2022-09-30T01:08:53.260Z,18.20
2022-09-30T01:11:21.209Z,17.25
2022-09-30T01:13:53.097Z,16.40
2022-09-30T01:16:30.760Z,17.20
2022-09-30T01:19:35.535Z,16.08
2022-09-30T01:22:26.443Z,14.15
2022-09-30T01:24:54.415Z,11.50
2022-09-30T01:27:31.532Z,9.73
2022-09-30T01:30:22.847Z,9.45
2022-09-30T01:33:02.989Z,10.40
2022-09-30T01:35:43.020Z,8.00
2022-09-30T01:38:45.314Z,6.28
2022-09-30T01:41:18.303Z,5.65
2022-09-30T01:44:04.558Z,4.97
2022-09-30T01:46:44.339Z,5.07
2022-09-30T01:49:27.207Z,6.10
2022-09-30T01:52:19.284Z,5.65
2022-09-30T01:55:09.201Z,6.05
2022-09-30T01:57:46.174Z,6.50
2022-09-30T02:00:17.891Z,7.57
2022-09-30T02:03:16.872Z,9.00
2022-09-30T02:05:56.032Z,8.63
2022-09-30T02:08:34.388Z,7.67
2022-09-30T02:11:13.130Z,8.80
2022-09-30T02:13:50.283Z,7.03
2022-09-30T02:16:26.114Z,8.57
2022-09-30T02:18:58.186Z,7.30
2022-09-30T02:21:33.182Z,8.35
2022-09-30T02:24:06.176Z,9.23
2022-09-30T02:26:38.214Z,10.05
2022-09-30T02:29:20.145Z,9.07
2022-09-30T02:31:59.129Z,8.50
2022-09-30T02:34:38.048Z,12.07
2022-09-30T02:37:17.755Z,11.77
2022-09-30T02:40:13.186Z,12.90
2022-09-30T02:42:42.080Z,12.93
2022-09-30T02:45:12.614Z,13.67
2022-09-30T02:47:46.272Z,13.48
2022-09-30T02:50:31.738Z,13.80
2022-09-30T02:53:08.346Z,13.48
2022-09-30T02:56:20.226Z,13.93
2022-09-30T02:58:53.175Z,14.18
2022-09-30T03:01:21.244Z,12.63
2022-09-30T03:04:01.852Z,15.93
2022-09-30T03:06:31.047Z,13.40
2022-09-30T03:09:01.545Z,13.73
2022-09-30T03:11:30.612Z,13.90
2022-09-30T03:14:43.247Z,14.73
2022-09-30T03:17:50.082Z,13.40
2022-09-30T03:20:33.944Z,13.93
2022-09-30T03:23:17.226Z,13.90
2022-09-30T03:26:17.346Z,13.95
2022-09-30T03:29:04.059Z,12.50
2022-09-30T03:32:09.772Z,12.70
2022-09-30T03:35:04.286Z,11.18
2022-09-30T03:37:35.695Z,12.50
2022-09-30T03:40:11.947Z,11.50
2022-09-30T03:42:45.965Z,11.07
2022-09-30T03:45:35.297Z,11.73
2022-09-30T03:48:07.221Z,11.90
2022-09-30T03:50:40.039Z,13.48
2022-09-30T03:53:13.248Z,11.98
2022-09-30T03:55:51.073Z,12.00
2022-09-30T03:58:23.611Z,13.73
2022-09-30T04:00:54.607Z,12.07
2022-09-30T04:03:33.474Z,11.57
2022-09-30T04:06:03.743Z,12.57
2022-09-30T04:08:35.004Z,14.13
2022-09-30T04:11:07.296Z,12.07
2022-09-30T04:13:35.386Z,12.18
2022-09-30T04:16:05.405Z,12.82
2022-09-30T04:18:38.637Z,12.43
2022-09-30T04:21:12.815Z,12.68
2022-09-30T04:23:42.229Z,12.00
2022-09-30T04:26:20.504Z,12.00
2022-09-30T04:28:49.322Z,13.27
2022-09-30T04:31:21.709Z,11.63
2022-09-30T04:33:52.882Z,14.55
2022-09-30T04:36:21.317Z,13.93
2022-09-30T04:38:50.098Z,13.20
2022-09-30T04:41:18.902Z,12.57
2022-09-30T04:43:51.982Z,12.32
2022-09-30T04:46:23.347Z,13.38
2022-09-30T04:48:55.370Z,11.57
2022-09-30T04:51:30.179Z,12.43
2022-09-30T04:53:59.289Z,12.35
2022-09-30T04:56:27.174Z,12.45
2022-09-30T04:58:54.996Z,13.02
2022-09-30T05:01:25.058Z,14.50
2022-09-30T05:03:55.001Z,15.07
2022-09-30T05:06:30.710Z,15.10
2022-09-30T05:09:13.123Z,14.73
2022-09-30T05:11:50.038Z,15.85
2022-09-30T05:14:22.481Z,14.20
2022-09-30T05:16:59.847Z,16.58
2022-09-30T05:19:28.392Z,16.12
2022-09-30T05:21:56.958Z,15.85
2022-09-30T05:24:30.293Z,15.93
2022-09-30T05:26:59.421Z,15.52
2022-09-30T05:29:32.113Z,16.43
2022-09-30T05:32:01.338Z,16.48
2022-09-30T05:34:30.616Z,16.67
2022-09-30T05:36:58.841Z,16.57
2022-09-30T05:39:30.059Z,16.67
2022-09-30T05:41:59.409Z,14.98
2022-09-30T05:44:27.919Z,14.87
2022-09-30T05:46:56.501Z,15.30
2022-09-30T05:49:27.578Z,15.10
2022-09-30T05:52:02.712Z,15.13
2022-09-30T05:54:30.746Z,15.20
2022-09-30T05:57:03.013Z,15.18
2022-09-30T05:59:33.771Z,15.38
2022-09-30T06:02:10.043Z,16.17
2022-09-30T06:04:38.746Z,15.45
2022-09-30T06:07:10.474Z,14.80
2022-09-30T06:09:40.420Z,16.55
2022-09-30T06:12:16.913Z,14.57
2022-09-30T06:14:46.283Z,15.27
2022-09-30T06:17:14.149Z,15.10
2022-09-30T06:19:42.592Z,16.33
2022-09-30T06:22:11.080Z,14.83
2022-09-30T06:24:46.006Z,14.65
2022-09-30T06:27:16.728Z,15.68
2022-09-30T06:29:48.472Z,14.30
2022-09-30T06:32:20.372Z,15.90
2022-09-30T06:34:51.356Z,13.05
2022-09-30T06:37:19.801Z,15.13
2022-09-30T06:39:47.927Z,12.37
2022-09-30T06:42:18.015Z,13.75
2022-09-30T06:44:53.611Z,11.77
2022-09-30T06:47:26.101Z,14.77
2022-09-30T06:49:59.249Z,15.37
2022-09-30T06:52:27.761Z,12.73
2022-09-30T06:54:59.691Z,12.07
2022-09-30T06:57:28.116Z,13.80
2022-09-30T06:59:56.918Z,12.13
2022-09-30T07:02:25.061Z,14.65
2022-09-30T07:04:53.634Z,13.70
2022-09-30T07:07:22.477Z,10.40
2022-09-30T07:09:56.379Z,11.68
2022-09-30T07:12:42.812Z,9.60
2022-09-30T07:15:14.077Z,8.82
2022-09-30T07:17:42.376Z,9.25
2022-09-30T07:20:10.676Z,9.48
2022-09-30T07:22:39.622Z,8.75
2022-09-30T07:25:12.716Z,9.20
2022-09-30T07:27:41.497Z,9.23
2022-09-30T07:30:15.150Z,9.32
2022-09-30T07:32:50.270Z,10.10
2022-09-30T07:35:21.563Z,9.95
2022-09-30T07:38:01.284Z,10.38
2022-09-30T07:40:31.951Z,10.00
2022-09-30T07:43:00.690Z,10.75
2022-09-30T07:45:31.542Z,10.48
2022-09-30T07:47:59.636Z,11.23
2022-09-30T07:50:29.798Z,10.90
2022-09-30T07:53:00.661Z,11.73
2022-09-30T07:55:40.574Z,12.45
2022-09-30T07:58:11.430Z,12.05
2022-09-30T08:00:42.846Z,12.63
2022-09-30T08:03:11.843Z,13.32
2022-09-30T08:05:41.744Z,13.38
2022-09-30T08:08:13.705Z,13.18
2022-09-30T08:10:54.354Z,13.93
2022-09-30T08:13:25.374Z,15.07
2022-09-30T08:15:53.433Z,14.80
2022-09-30T08:18:29.199Z,14.35
2022-09-30T08:21:04.773Z,16.80
2022-09-30T08:23:34.271Z,16.40
2022-09-30T08:26:07.673Z,16.17
2022-09-30T08:28:38.969Z,15.10
2022-09-30T08:31:20.238Z,15.80
2022-09-30T08:36:49.087Z,16.27
2022-09-30T08:39:23.698Z,15.88
2022-09-30T08:42:42.432Z,16.50
2022-09-30T08:45:31.780Z,16.23
2022-09-30T08:48:11.183Z,15.15
2022-09-30T08:50:51.640Z,18.85
2022-09-30T08:53:33.195Z,14.23
2022-09-30T08:56:06.310Z,12.93
2022-09-30T08:58:41.998Z,13.88
2022-09-30T09:01:35.844Z,13.80
2022-09-30T09:04:09.559Z,13.20
2022-09-30T09:06:47.295Z,11.90
2022-09-30T09:09:30.503Z,11.02
2022-09-30T09:12:09.024Z,10.23
2022-09-30T09:15:00.703Z,10.00
2022-09-30T09:17:35.378Z,9.18
2022-09-30T09:20:14.919Z,8.35
2022-09-30T09:22:44.657Z,7.40
2022-09-30T09:25:16.817Z,8.23
2022-09-30T09:28:07.428Z,5.82
2022-09-30T09:30:47.439Z,6.47
2022-09-30T09:33:23.346Z,6.15
2022-09-30T09:36:28.637Z,5.95
2022-09-30T09:39:26.513Z,7.68
2022-09-30T09:42:17.382Z,5.68
2022-09-30T09:45:03.365Z,6.37
2022-09-30T09:47:32.415Z,8.77
2022-09-30T09:50:04.761Z,6.80
2022-09-30T09:52:58.596Z,7.43
2022-09-30T09:55:28.139Z,7.05
2022-09-30T09:58:14.102Z,7.28
2022-09-30T10:00:51.287Z,8.05
2022-09-30T10:03:25.828Z,6.50
2022-09-30T10:06:15.441Z,6.37
2022-09-30T10:08:56.003Z,6.60
2022-09-30T10:11:31.302Z,7.07
2022-09-30T10:14:01.611Z,7.40
2022-09-30T10:16:41.838Z,7.60
2022-09-30T10:19:27.386Z,8.65
2022-09-30T10:22:28.488Z,6.78
2022-09-30T10:25:14.979Z,6.30
2022-09-30T10:27:52.827Z,7.45
2022-09-30T10:30:41.311Z,6.28
2022-09-30T10:33:34.535Z,5.57
2022-09-30T10:36:14.578Z,6.57
2022-09-30T10:39:02.520Z,5.37
2022-09-30T10:41:39.346Z,6.60
2022-09-30T10:44:17.977Z,5.15
2022-09-30T10:46:48.844Z,5.60
2022-09-30T10:49:31.645Z,6.37
2022-09-30T10:52:01.726Z,4.93
2022-09-30T10:54:40.626Z,5.68
2022-09-30T10:57:24.542Z,4.15
2022-09-30T11:00:20.410Z,3.60
2022-09-30T11:02:59.381Z,3.83
2022-09-30T11:05:41.246Z,3.75
2022-09-30T11:08:22.910Z,4.20
2022-09-30T11:11:14.716Z,3.10
2022-09-30T11:14:23.678Z,3.53
2022-09-30T11:17:31.861Z,3.10
2022-09-30T11:20:16.622Z,3.53
2022-09-30T11:22:54.521Z,2.35
2022-09-30T11:25:33.749Z,3.05
2022-09-30T11:28:09.859Z,2.20
2022-09-30T11:31:07.253Z,2.73
2022-09-30T11:34:00.221Z,1.83
2022-09-30T11:36:28.297Z,1.20
2022-09-30T11:39:18.296Z,3.53
2022-09-30T11:42:04.059Z,1.35
2022-09-30T11:44:41.673Z,1.30
2022-09-30T11:47:38.020Z,2.08
2022-09-30T11:50:28.309Z,2.22
2022-09-30T11:53:15.336Z,1.33
2022-09-30T11:56:07.259Z,2.00
2022-09-30T11:58:42.174Z,2.90
2022-09-30T12:01:21.285Z,1.85
2022-09-30T12:03:57.829Z,2.35
2022-09-30T12:06:32.114Z,1.87
2022-09-30T12:09:08.475Z,2.17
2022-09-30T12:11:42.544Z,2.97
2022-09-30T12:14:23.699Z,2.00
2022-09-30T12:16:51.840Z,2.53
2022-09-30T12:19:28.127Z,1.85
2022-09-30T12:22:01.324Z,1.40
2022-09-30T12:24:40.703Z,2.10
2022-09-30T12:27:16.079Z,1.80
2022-09-30T12:30:18.898Z,1.20
2022-09-30T12:33:05.746Z,1.30
2022-09-30T12:36:09.307Z,1.98
2022-09-30T12:38:50.330Z,2.05
2022-09-30T12:41:40.941Z,2.12
2022-09-30T12:44:46.385Z,5.37
2022-09-30T12:47:46.039Z,2.62
2022-09-30T12:50:24.033Z,2.90
2022-09-30T12:52:54.278Z,3.67
2022-09-30T12:55:32.340Z,3.25
2022-09-30T12:58:04.160Z,3.22
2022-09-30T13:00:38.196Z,3.20
2022-09-30T13:03:18.564Z,2.95
2022-09-30T13:06:11.966Z,2.90
2022-09-30T13:08:52.315Z,4.10
2022-09-30T13:11:42.226Z,2.92
2022-09-30T13:14:35.269Z,3.40
2022-09-30T13:17:12.397Z,4.37
2022-09-30T13:19:48.329Z,4.93
2022-09-30T13:22:24.326Z,6.32
2022-09-30T13:25:03.469Z,6.55
2022-09-30T13:27:39.486Z,5.65
2022-09-30T13:30:17.848Z,5.57
2022-09-30T13:32:51.295Z,4.55
2022-09-30T13:35:46.729Z,4.68
2022-09-30T13:38:15.887Z,4.80
2022-09-30T13:41:01.748Z,4.55
2022-09-30T13:43:40.036Z,4.22
2022-09-30T13:46:28.769Z,3.30
2022-09-30T13:49:35.967Z,3.22
2022-09-30T13:52:16.409Z,3.78
2022-09-30T13:55:15.756Z,6.40
2022-09-30T13:58:07.591Z,4.37
2022-09-30T14:01:06.938Z,5.55
2022-09-30T14:04:02.223Z,4.53
2022-09-30T14:06:56.731Z,2.47
2022-09-30T14:09:32.696Z,3.00
2022-09-30T14:12:20.181Z,3.00
2022-09-30T14:15:12.837Z,5.30
2022-09-30T14:18:18.705Z,3.37
2022-09-30T14:21:22.976Z,3.45
2022-09-30T14:24:24.280Z,2.85
2022-09-30T14:27:31.287Z,5.20
2022-09-30T14:30:21.364Z,3.22
2022-09-30T14:32:56.177Z,3.37
2022-09-30T14:35:29.282Z,4.60
2022-09-30T14:38:01.113Z,5.10
2022-09-30T14:40:35.042Z,4.72
2022-09-30T14:43:13.285Z,4.20
2022-09-30T14:45:45.637Z,4.80
2022-09-30T14:48:21.898Z,5.47
2022-09-30T14:50:58.233Z,6.60
2022-09-30T14:53:38.934Z,6.72
2022-09-30T14:56:23.669Z,4.95
2022-09-30T14:58:53.305Z,5.43
2022-09-30T15:01:23.726Z,4.83
2022-09-30T15:04:10.777Z,4.68
2022-09-30T15:06:48.037Z,5.13
2022-09-30T15:09:18.183Z,4.15
2022-09-30T15:11:47.282Z,5.35
2022-09-30T15:14:21.160Z,4.25
2022-09-30T15:16:55.053Z,4.43
2022-09-30T15:19:26.488Z,4.55
2022-09-30T15:21:59.127Z,5.00
2022-09-30T15:24:32.038Z,4.87
2022-09-30T15:27:04.801Z,5.55
2022-09-30T15:29:33.123Z,5.97
2022-09-30T15:32:23.263Z,5.03
2022-09-30T15:35:16.058Z,5.80
2022-09-30T15:37:46.179Z,5.90
2022-09-30T15:40:33.779Z,5.93
2022-09-30T15:43:07.090Z,5.80
2022-09-30T15:45:41.150Z,5.35
2022-09-30T15:48:27.765Z,7.47
2022-09-30T15:51:06.194Z,5.18
2022-09-30T15:53:45.494Z,8.35
2022-09-30T15:56:35.758Z,5.90
2022-09-30T15:59:13.344Z,4.68
2022-09-30T16:01:51.305Z,5.57
2022-09-30T16:04:31.916Z,5.40
2022-09-30T16:07:13.544Z,7.90
2022-09-30T16:09:41.880Z,4.05
2022-09-30T16:12:23.148Z,7.70
2022-09-30T16:14:53.937Z,5.10
2022-09-30T16:17:34.172Z,5.05
2022-09-30T16:20:08.495Z,5.25
2022-09-30T16:22:42.794Z,6.60
2022-09-30T16:25:30.871Z,5.53
2022-09-30T16:28:12.612Z,5.80
2022-09-30T16:30:44.046Z,5.62
2022-09-30T16:33:14.942Z,6.45
2022-09-30T16:35:56.936Z,6.73
2022-09-30T16:38:25.583Z,7.78
2022-09-30T16:40:55.912Z,7.18
2022-09-30T16:43:29.343Z,6.40
2022-09-30T16:46:02.836Z,7.20
2022-09-30T16:48:32.230Z,9.02
2022-09-30T16:51:16.029Z,8.48
2022-09-30T16:53:48.242Z,7.80
2022-09-30T16:56:27.389Z,11.23
2022-09-30T16:59:07.865Z,12.60
2022-09-30T17:01:37.174Z,14.50
2022-09-30T17:04:12.966Z,19.48
2022-09-30T17:06:47.781Z,14.67
2022-09-30T17:09:16.071Z,20.50
2022-09-30T17:11:50.055Z,16.37
2022-09-30T17:14:18.135Z,17.27
2022-09-30T17:16:47.247Z,18.90
2022-09-30T17:19:30.716Z,23.80
2022-09-30T17:22:05.037Z,19.98
2022-09-30T17:24:36.885Z,19.95
2022-09-30T17:27:06.972Z,14.25
2022-09-30T17:29:47.989Z,19.77
2022-09-30T17:32:25.947Z,14.40
2022-09-30T17:34:56.130Z,16.73
2022-09-30T17:37:28.544Z,17.60
2022-09-30T17:39:59.189Z,17.13
2022-09-30T17:42:46.835Z,16.40
2022-09-30T17:45:21.279Z,16.60
2022-09-30T17:47:50.403Z,18.33
2022-09-30T17:50:22.420Z,16.37
2022-09-30T17:52:52.549Z,16.92
2022-09-30T17:55:22.624Z,23.13
2022-09-30T17:57:54.686Z,21.23
2022-09-30T18:00:25.801Z,19.98
2022-09-30T18:02:55.242Z,23.92
2022-09-30T18:05:25.874Z,20.50
2022-09-30T18:07:54.738Z,18.40
2022-09-30T18:10:26.470Z,18.90
2022-09-30T18:12:55.800Z,26.73
2022-09-30T18:15:31.056Z,29.15
2022-09-30T18:18:00.848Z,19.58
2022-09-30T18:20:33.420Z,21.95
2022-09-30T18:23:02.973Z,20.67
2022-09-30T18:25:37.838Z,29.40
2022-09-30T18:28:12.945Z,25.98
2022-09-30T18:30:46.954Z,21.97
2022-09-30T18:33:17.627Z,17.17
2022-09-30T18:35:46.723Z,17.20
2022-09-30T18:38:15.167Z,14.07
2022-09-30T18:40:44.195Z,12.83
2022-09-30T18:43:15.311Z,12.77
2022-09-30T18:45:43.974Z,14.32
2022-09-30T18:48:13.634Z,11.68
2022-09-30T18:50:51.541Z,10.63
2022-09-30T18:53:21.270Z,15.90
2022-09-30T18:55:49.589Z,24.27
2022-09-30T18:58:30.916Z,23.85
2022-09-30T19:01:08.559Z,17.23
2022-09-30T19:03:43.365Z,18.57
2022-09-30T19:06:22.070Z,14.13
2022-09-30T19:08:51.210Z,10.52
2022-09-30T19:11:31.056Z,14.43
2022-09-30T19:14:11.178Z,11.05
2022-09-30T19:16:52.706Z,9.95
2022-09-30T19:19:39.500Z,10.18
2022-09-30T19:22:25.794Z,10.02
2022-09-30T19:25:12.211Z,9.25
2022-09-30T19:27:43.325Z,10.20
2022-09-30T19:30:19.572Z,9.13
2022-09-30T19:33:00.324Z,9.98
2022-09-30T19:35:39.499Z,11.93
2022-09-30T19:38:14.499Z,9.75
2022-09-30T19:41:04.906Z,10.10
2022-09-30T19:43:34.545Z,9.43
2022-09-30T19:46:05.860Z,10.52
2022-09-30T19:48:39.958Z,12.07
2022-09-30T19:51:14.957Z,12.93
2022-09-30T19:54:06.095Z,11.45
2022-09-30T19:56:46.681Z,10.75
2022-09-30T19:59:19.722Z,9.95
2022-09-30T20:01:53.053Z,10.83
2022-09-30T20:04:27.572Z,14.25
2022-09-30T20:06:59.425Z,11.40
2022-09-30T20:09:37.667Z,12.85
2022-09-30T20:12:09.153Z,12.25
2022-09-30T20:15:06.416Z,11.25
2022-09-30T20:17:44.249Z,12.07
2022-09-30T20:20:43.668Z,10.10
2022-09-30T20:23:23.515Z,10.25
2022-09-30T20:26:04.455Z,11.17
2022-09-30T20:28:33.103Z,9.90
2022-09-30T20:31:16.937Z,9.27
2022-09-30T20:34:03.679Z,10.85
2022-09-30T20:36:37.067Z,9.13
2022-09-30T20:39:06.981Z,11.52
2022-09-30T20:41:45.867Z,8.30
2022-09-30T20:44:14.272Z,8.10
2022-09-30T20:46:46.018Z,9.48
2022-09-30T20:49:21.222Z,9.38
2022-09-30T20:51:54.122Z,11.07
2022-09-30T20:54:23.099Z,10.65
2022-09-30T20:57:07.131Z,10.35
2022-09-30T20:59:38.900Z,12.68
2022-09-30T21:02:07.633Z,8.05
2022-09-30T21:04:36.106Z,10.70
2022-09-30T21:07:04.200Z,9.40
2022-09-30T21:09:35.090Z,10.38
2022-09-30T21:12:08.608Z,9.80
2022-09-30T21:14:40.467Z,10.50
2022-09-30T21:17:08.861Z,11.85
2022-09-30T21:19:38.316Z,13.10
2022-09-30T21:22:17.432Z,10.55
2022-09-30T21:24:49.989Z,12.35
2022-09-30T21:27:18.721Z,12.27
2022-09-30T21:29:50.460Z,12.57
2022-09-30T21:32:21.075Z,12.27
2022-09-30T21:34:48.948Z,11.93
2022-09-30T21:37:17.099Z,10.90
2022-09-30T21:39:48.444Z,13.25
2022-09-30T21:42:16.674Z,12.48
2022-09-30T21:44:45.498Z,11.07
2022-09-30T21:47:17.146Z,12.50
2022-09-30T21:49:45.366Z,12.30
2022-09-30T21:52:13.611Z,11.70
2022-09-30T21:54:41.739Z,13.55
2022-09-30T21:57:09.344Z,13.45
2022-09-30T21:59:38.793Z,13.40
2022-09-30T22:02:06.609Z,15.10
2022-09-30T22:04:42.117Z,12.65
2022-09-30T22:07:09.956Z,11.48
2022-09-30T22:09:42.976Z,12.33
2022-09-30T22:12:14.768Z,12.00
2022-09-30T22:14:44.737Z,12.60
2022-09-30T22:17:15.924Z,11.70
2022-09-30T22:19:46.526Z,14.65
2022-09-30T22:22:14.146Z,11.63
2022-09-30T22:24:44.280Z,10.70
2022-09-30T22:27:17.607Z,9.70
2022-09-30T22:29:45.545Z,12.20
2022-09-30T22:32:13.851Z,11.70
2022-09-30T22:35:02.596Z,11.88
2022-09-30T22:37:49.473Z,14.98
2022-09-30T22:40:17.487Z,12.20
2022-09-30T22:42:47.991Z,14.02
2022-09-30T22:45:20.220Z,13.10
2022-09-30T22:47:47.857Z,15.90
2022-09-30T22:50:19.696Z,13.27
2022-09-30T22:52:48.591Z,13.93
2022-09-30T22:55:16.903Z,15.57
2022-09-30T22:57:44.325Z,17.17
2022-09-30T23:00:20.485Z,17.05
2022-09-30T23:02:50.761Z,14.73
2022-09-30T23:05:21.040Z,14.60
2022-09-30T23:07:48.806Z,15.35
2022-09-30T23:10:25.372Z,17.03
2022-09-30T23:12:53.422Z,15.00
2022-09-30T23:15:20.810Z,12.63
2022-09-30T23:17:48.375Z,12.88
2022-09-30T23:20:16.332Z,13.02
2022-09-30T23:22:44.040Z,13.83
2022-09-30T23:25:26.384Z,12.63
2022-09-30T23:27:54.032Z,13.77
2022-09-30T23:30:21.414Z,12.82
2022-09-30T23:32:56.503Z,13.45
2022-09-30T23:35:26.750Z,15.40
2022-09-30T23:37:54.397Z,13.90
2022-09-30T23:40:24.092Z,14.15
2022-09-30T23:42:51.751Z,13.18
2022-09-30T23:45:19.703Z,13.90
2022-09-30T23:47:48.371Z,13.43
2022-09-30T23:50:16.369Z,13.57
2022-09-30T23:52:44.363Z,14.30
2022-09-30T23:55:11.727Z,13.05
2022-09-30T23:57:39.947Z,13.77
